createdAt,value
2023-05-05T00:00:23.139Z,98149.31
2023-05-05T00:03:26.168Z,98141.78
2023-05-05T00:06:31.647Z,98138.72
2023-05-05T00:09:33.649Z,98133.03
2023-05-05T00:12:36.496Z,98133.19
2023-05-05T00:15:38.723Z,98123.44
2023-05-05T00:18:40.892Z,98127.31
2023-05-05T00:21:42.893Z,98121.00
2023-05-05T00:24:44.998Z,98107.25
2023-05-05T00:27:47.971Z,98113.97
2023-05-05T00:30:50.736Z,98108.84
2023-05-05T00:33:52.947Z,98108.03
2023-05-05T00:36:54.987Z,98104.13
2023-05-05T00:39:57.967Z,98104.34
2023-05-05T00:43:00.054Z,98086.63
2023-05-05T00:46:25.047Z,98094.13
2023-05-05T00:49:27.251Z,98096.09
2023-05-05T00:52:29.837Z,98093.00
2023-05-05T00:55:33.513Z,98080.41
2023-05-05T00:58:37.170Z,98086.09
2023-05-05T01:01:39.260Z,98084.09
2023-05-05T01:04:41.381Z,98075.75
2023-05-05T01:07:43.459Z,98080.16
2023-05-05T01:10:52.638Z,98073.47
2023-05-05T01:14:14.416Z,98063.84
2023-05-05T01:17:24.699Z,98065.31
2023-05-05T01:20:33.476Z,98072.78
2023-05-05T01:23:44.069Z,98073.97
2023-05-05T01:27:17.401Z,98066.06
2023-05-05T01:31:17.491Z,98063.63
2023-05-05T01:34:35.809Z,98067.47
2023-05-05T01:37:49.931Z,98060.75
2023-05-05T01:41:10.247Z,98064.59
2023-05-05T01:44:15.727Z,98061.94
2023-05-05T01:47:21.378Z,98026.88
2023-05-05T01:50:24.925Z,98027.91
2023-05-05T01:53:27.817Z,98051.34
2023-05-05T01:56:31.789Z,98059.31
2023-05-05T01:59:34.496Z,98057.84
2023-05-05T02:02:39.556Z,98028.34
2023-05-05T02:05:43.763Z,98054.84
2023-05-05T02:08:47.406Z,98049.19
2023-05-05T02:11:49.768Z,98042.53
2023-05-05T02:14:53.451Z,98047.19
2023-05-05T02:17:56.824Z,98035.81
2023-05-05T02:20:59.187Z,98032.38
2023-05-05T02:24:01.557Z,98036.44
2023-05-05T02:27:06.328Z,98035.66
2023-05-05T02:30:11.417Z,98042.38
2023-05-05T02:33:17.832Z,98040.13
2023-05-05T02:36:23.154Z,98033.22
2023-05-05T02:39:43.880Z,98023.50
2023-05-05T02:42:54.789Z,98028.19
2023-05-05T02:46:01.193Z,98033.47
2023-05-05T02:49:04.719Z,98036.88
2023-05-05T02:52:07.423Z,98033.59
2023-05-05T02:55:12.838Z,98031.97
2023-05-05T02:58:42.792Z,98035.81
2023-05-05T03:02:11.457Z,98033.59
2023-05-05T03:05:19.916Z,98035.25
2023-05-05T03:08:42.383Z,98030.97
2023-05-05T03:11:51.169Z,98040.09
2023-05-05T03:14:56.295Z,98024.47
2023-05-05T03:18:00.615Z,98005.03
2023-05-05T03:21:08.855Z,98031.97
2023-05-05T03:24:15.910Z,98025.63
2023-05-05T03:27:21.636Z,98034.38
2023-05-05T03:30:23.661Z,98038.41
2023-05-05T03:33:27.466Z,98024.94
2023-05-05T03:36:35.249Z,98037.78
2023-05-05T03:39:37.843Z,98036.31
2023-05-05T03:42:40.989Z,98037.53
2023-05-05T03:45:43.123Z,98036.50
2023-05-05T03:48:46.286Z,98036.84
2023-05-05T03:51:48.378Z,98039.88
2023-05-05T03:54:50.889Z,98043.72
2023-05-05T03:57:53.611Z,98042.91
2023-05-05T04:00:55.613Z,98047.78
2023-05-05T04:03:57.982Z,98051.66
2023-05-05T04:07:00.050Z,98056.81
2023-05-05T04:10:02.207Z,98050.53
2023-05-05T04:13:04.418Z,98055.78
2023-05-05T04:16:08.916Z,98060.25
2023-05-05T04:19:13.349Z,98061.72
2023-05-05T04:22:16.024Z,98063.78
2023-05-05T04:25:18.364Z,98058.91
2023-05-05T04:28:22.018Z,98063.00
2023-05-05T04:31:24.702Z,98070.72
2023-05-05T04:34:26.837Z,98071.31
2023-05-05T04:37:29.603Z,98076.22
2023-05-05T04:40:33.373Z,98071.44
2023-05-05T04:43:36.258Z,98058.22
2023-05-05T04:46:38.456Z,98076.38
2023-05-05T04:49:40.664Z,98087.97
2023-05-05T04:52:42.857Z,98094.13
2023-05-05T04:55:44.842Z,98092.34
2023-05-05T04:58:46.833Z,98091.75
2023-05-05T05:01:48.900Z,98097.03
2023-05-05T05:04:51.033Z,98100.31
2023-05-05T05:07:52.981Z,98099.69
2023-05-05T05:10:54.924Z,98092.84
2023-05-05T05:13:57.812Z,98098.75
2023-05-05T05:16:59.796Z,98100.00
2023-05-05T05:20:05.111Z,98103.88
2023-05-05T05:23:09.061Z,98095.97
2023-05-05T05:26:16.805Z,98104.13
2023-05-05T05:29:20.640Z,98104.72
2023-05-05T05:32:23.714Z,98108.81
2023-05-05T05:35:25.999Z,98113.91
2023-05-05T05:38:28.234Z,98108.03
2023-05-05T05:41:33.864Z,98110.50
2023-05-05T05:44:36.205Z,98114.63
2023-05-05T05:47:38.305Z,98109.78
2023-05-05T05:50:40.393Z,98113.88
2023-05-05T05:53:42.453Z,98113.31
2023-05-05T05:56:44.695Z,98111.09
2023-05-05T05:59:46.974Z,98113.16
2023-05-05T06:02:49.240Z,98111.19
2023-05-05T06:05:54.220Z,98123.19
2023-05-05T06:08:57.484Z,98116.50
2023-05-05T06:11:59.755Z,98113.19
2023-05-05T06:15:01.763Z,98119.28
2023-05-05T06:18:04.765Z,98118.22
2023-05-05T06:21:07.068Z,98119.69
2023-05-05T06:24:09.104Z,98119.34
2023-05-05T06:27:11.302Z,98115.94
2023-05-05T06:30:14.922Z,98115.38
2023-05-05T06:33:17.091Z,98119.44
2023-05-05T06:36:19.138Z,98120.75
2023-05-05T06:39:21.175Z,98120.81
2023-05-05T06:42:23.309Z,98122.59
2023-05-05T06:45:27.333Z,98126.44
2023-05-05T06:48:29.294Z,98133.38
2023-05-05T06:51:32.031Z,98130.06
2023-05-05T06:54:34.298Z,98123.72
2023-05-05T06:57:36.403Z,98126.59
2023-05-05T07:00:41.331Z,98128.53
2023-05-05T07:03:44.177Z,98120.53
2023-05-05T07:06:46.493Z,98125.09
2023-05-05T07:09:48.452Z,98129.91
2023-05-05T07:12:52.169Z,98128.50
2023-05-05T07:15:54.412Z,98137.88
2023-05-05T07:18:57.099Z,98135.00
2023-05-05T07:21:59.139Z,98133.31
2023-05-05T07:25:01.234Z,98127.34
2023-05-05T07:28:03.914Z,98126.03
2023-05-05T07:31:05.968Z,98129.50
2023-05-05T07:34:07.953Z,98124.31
2023-05-05T07:37:10.072Z,98124.19
2023-05-05T07:40:12.849Z,98126.75
2023-05-05T07:43:14.843Z,98126.53
2023-05-05T07:46:16.894Z,98128.28
2023-05-05T07:49:20.229Z,98114.53
2023-05-05T07:52:33.180Z,98130.94
2023-05-05T07:55:44.347Z,98115.88
2023-05-05T07:58:47.023Z,98119.56
2023-05-05T08:01:48.986Z,98119.91
2023-05-05T08:04:51.086Z,98119.75
2023-05-05T08:07:53.153Z,98095.03
2023-05-05T08:10:55.172Z,98112.13
2023-05-05T08:13:57.215Z,98113.03
2023-05-05T08:16:59.316Z,98108.53
2023-05-05T08:20:01.340Z,98108.31
2023-05-05T08:23:03.401Z,98092.47
2023-05-05T08:26:06.736Z,98105.97
2023-05-05T08:29:08.690Z,98111.38
2023-05-05T08:32:10.772Z,98101.47
2023-05-05T08:35:13.434Z,98109.31
2023-05-05T08:38:15.765Z,98100.13
2023-05-05T08:41:18.981Z,98113.13
2023-05-05T08:44:21.113Z,98105.34
2023-05-05T08:47:23.161Z,98107.00
2023-05-05T08:50:27.998Z,98123.13
2023-05-05T08:53:43.755Z,98083.06
2023-05-05T08:56:47.627Z,98111.84
2023-05-05T08:59:50.280Z,98115.91
2023-05-05T09:02:54.912Z,98115.09
2023-05-05T09:05:58.156Z,98115.09
2023-05-05T09:09:01.594Z,98109.44
2023-05-05T09:12:04.121Z,98110.25
2023-05-05T09:18:29.896Z,98105.72
2023-05-05T09:21:32.751Z,98108.38
2023-05-05T09:24:34.733Z,98100.03
2023-05-05T09:27:38.710Z,98100.31
2023-05-05T09:30:42.453Z,98101.13
2023-05-05T09:33:44.652Z,98100.06
2023-05-05T09:36:48.344Z,98104.34
2023-05-05T09:39:55.664Z,98104.63
2023-05-05T09:43:03.919Z,98090.88
2023-05-05T09:46:08.043Z,98095.47
2023-05-05T09:49:20.356Z,98104.53
2023-05-05T09:52:22.647Z,98097.88
2023-05-05T09:55:25.265Z,98092.47
2023-05-05T09:58:29.292Z,98080.59
2023-05-05T10:01:31.542Z,98102.38
2023-05-05T10:04:33.523Z,98096.69
2023-05-05T10:07:36.415Z,98097.44
2023-05-05T10:10:46.354Z,98107.19
2023-05-05T10:13:48.770Z,98097.84
2023-05-05T10:16:53.820Z,98098.06
2023-05-05T10:19:58.302Z,98098.84
2023-05-05T10:23:05.589Z,98096.06
2023-05-05T10:26:10.779Z,98094.19
2023-05-05T10:29:20.557Z,98097.72
2023-05-05T10:32:53.972Z,98096.03
2023-05-05T10:35:53.779Z,98089.19
2023-05-05T10:38:57.971Z,98076.41
2023-05-05T10:42:04.507Z,98086.75
2023-05-05T10:45:07.721Z,98047.47
2023-05-05T10:48:22.967Z,98076.59
2023-05-05T10:51:40.135Z,98075.88
2023-05-05T10:55:16.901Z,98063.88
2023-05-05T10:58:55.428Z,98060.91
2023-05-05T11:02:01.110Z,98069.25
2023-05-05T11:05:07.242Z,98058.91
2023-05-05T11:08:26.631Z,98046.88
2023-05-05T11:12:04.812Z,98051.66
2023-05-05T11:15:31.614Z,98048.22
2023-05-05T11:18:36.742Z,98049.28
2023-05-05T11:22:02.090Z,98055.53
2023-05-05T11:25:36.465Z,98038.53
2023-05-05T11:29:05.087Z,98028.78
2023-05-05T11:32:18.179Z,98023.97
2023-05-05T11:35:20.191Z,98026.47
2023-05-05T11:39:03.140Z,98017.06
2023-05-05T11:42:28.855Z,97998.84
2023-05-05T11:45:31.630Z,98021.34
2023-05-05T11:48:46.367Z,97998.72
2023-05-05T11:52:00.188Z,98014.72
2023-05-05T11:55:02.247Z,98014.78
2023-05-05T11:58:18.487Z,98019.00
2023-05-05T12:01:20.556Z,98013.31
2023-05-05T12:04:22.747Z,98015.59
2023-05-05T12:07:28.163Z,97999.53
2023-05-05T12:10:30.768Z,98009.47
2023-05-05T12:13:33.021Z,97981.88
2023-05-05T12:16:35.168Z,98006.44
2023-05-05T12:19:37.406Z,98007.94
2023-05-05T12:22:40.005Z,97977.84
2023-05-05T12:25:41.966Z,98000.25
2023-05-05T12:28:48.427Z,97993.06
2023-05-05T12:31:50.988Z,97997.44
2023-05-05T12:34:54.787Z,97996.75
2023-05-05T12:37:57.138Z,97994.84
2023-05-05T12:40:59.054Z,97987.22
2023-05-05T12:44:03.295Z,97982.91
2023-05-05T12:47:05.726Z,97981.69
2023-05-05T12:50:08.449Z,97979.06
2023-05-05T12:53:23.019Z,97979.47
2023-05-05T12:56:31.269Z,97972.19
2023-05-05T12:59:33.337Z,97947.13
2023-05-05T13:02:35.526Z,97970.53
2023-05-05T13:05:37.658Z,97961.50
2023-05-05T13:08:43.664Z,97956.09
2023-05-05T13:11:45.824Z,97943.97
2023-05-05T13:14:47.917Z,97944.06
2023-05-05T13:17:49.901Z,97944.72
2023-05-05T13:20:52.137Z,97943.84
2023-05-05T13:23:55.967Z,97940.38
2023-05-05T13:27:04.601Z,97942.28
2023-05-05T13:30:07.454Z,97919.38
2023-05-05T13:33:09.509Z,97923.97
2023-05-05T13:36:11.733Z,97918.19
2023-05-05T13:39:13.870Z,97923.59
2023-05-05T13:42:16.009Z,97915.00
2023-05-05T13:45:19.818Z,97910.50
2023-05-05T13:48:22.678Z,97904.56
2023-05-05T13:51:24.704Z,97889.31
2023-05-05T13:54:27.204Z,97882.59
2023-05-05T13:57:29.214Z,97891.44
2023-05-05T14:00:31.845Z,97884.22
2023-05-05T14:03:34.135Z,97883.31
2023-05-05T14:06:36.376Z,97880.91
2023-05-05T14:09:38.358Z,97883.38
2023-05-05T14:12:40.598Z,97874.09
2023-05-05T14:15:42.832Z,97883.13
2023-05-05T14:18:44.834Z,97876.50
2023-05-05T14:21:46.882Z,97868.41
2023-05-05T14:24:48.916Z,97866.59
2023-05-05T14:27:51.108Z,97870.19
2023-05-05T14:30:53.127Z,97869.97
2023-05-05T14:33:55.176Z,97861.03
2023-05-05T14:36:57.370Z,97862.84
2023-05-05T14:56:47.252Z,97856.16
2023-05-05T14:59:52.141Z,97849.78
2023-05-05T15:02:54.226Z,97853.44
2023-05-05T15:05:56.637Z,97858.03
2023-05-05T15:08:58.753Z,97851.81
2023-05-05T15:12:00.848Z,97853.63
2023-05-05T15:15:03.257Z,97855.38
2023-05-05T15:18:05.810Z,97850.16
2023-05-05T15:21:07.750Z,97851.94
2023-05-05T15:24:09.795Z,97857.19
2023-05-05T15:27:11.852Z,97851.25
2023-05-05T15:30:14.303Z,97850.94
2023-05-05T15:33:16.812Z,97857.00
2023-05-05T15:36:22.844Z,97837.75
2023-05-05T15:39:24.891Z,97840.84
2023-05-05T15:42:27.117Z,97845.88
2023-05-05T15:45:29.164Z,97849.38
2023-05-05T15:48:31.571Z,97849.59
2023-05-05T15:51:33.615Z,97852.31
2023-05-05T15:54:35.778Z,97843.41
2023-05-05T15:57:40.038Z,97824.59
2023-05-05T16:00:42.012Z,97848.91
2023-05-05T16:03:44.117Z,97839.13
2023-05-05T16:06:46.120Z,97835.63
2023-05-05T16:09:48.070Z,97840.47
2023-05-05T16:12:50.178Z,97837.66
2023-05-05T16:15:52.213Z,97839.91
2023-05-05T16:18:54.258Z,97836.19
2023-05-05T16:21:56.811Z,97830.91
2023-05-05T16:24:58.875Z,97826.19
2023-05-05T16:28:01.889Z,97834.63
2023-05-05T16:31:04.032Z,97830.88
2023-05-05T16:34:06.935Z,97822.91
2023-05-05T16:37:09.024Z,97828.91
2023-05-05T16:40:11.883Z,97823.03
2023-05-05T16:43:14.023Z,97825.47
2023-05-05T16:46:16.105Z,97803.00
2023-05-05T16:49:18.756Z,97820.50
2023-05-05T16:52:20.733Z,97815.41
2023-05-05T16:55:22.780Z,97815.78
2023-05-05T16:58:25.005Z,97728.31
2023-05-05T17:01:26.999Z,97815.75
2023-05-05T17:04:29.034Z,97806.13
2023-05-05T17:07:30.971Z,97814.28
2023-05-05T17:10:34.051Z,97804.94
2023-05-05T17:13:36.114Z,97805.75
2023-05-05T17:16:38.794Z,97814.19
2023-05-05T17:19:42.694Z,97807.03
2023-05-05T17:22:46.753Z,97807.91
2023-05-05T17:25:48.793Z,97820.03
2023-05-05T17:28:50.822Z,97813.88
2023-05-05T17:31:54.295Z,97816.59
2023-05-05T17:34:56.580Z,97820.06
2023-05-05T17:37:58.714Z,97814.72
2023-05-05T17:41:00.665Z,97812.84
2023-05-05T17:44:02.641Z,97815.25
2023-05-05T17:47:07.827Z,97819.00
2023-05-05T17:50:11.289Z,97817.34
2023-05-05T17:53:13.249Z,97819.22
2023-05-05T17:56:15.410Z,97830.44
2023-05-05T17:59:17.552Z,97823.41
2023-05-05T18:02:19.837Z,97769.31
2023-05-05T18:05:21.993Z,97820.09
2023-05-05T18:08:24.132Z,97824.56
2023-05-05T18:11:28.976Z,97812.94
2023-05-05T18:14:30.996Z,97828.13
2023-05-05T18:17:33.004Z,97822.09
2023-05-05T18:20:35.330Z,97830.03
2023-05-05T18:23:37.318Z,97833.44
2023-05-05T18:26:39.450Z,97828.78
2023-05-05T18:29:41.786Z,97832.16
2023-05-05T18:32:43.878Z,97839.56
2023-05-05T18:35:46.016Z,97838.34
2023-05-05T18:38:48.079Z,97843.63
2023-05-05T18:41:50.360Z,97848.13
2023-05-05T18:44:52.319Z,97837.28
2023-05-05T18:47:54.353Z,97849.84
2023-05-05T18:51:04.139Z,97858.53
2023-05-05T18:54:06.207Z,97853.63
2023-05-05T18:57:08.468Z,97842.22
2023-05-05T19:00:11.126Z,97832.19
2023-05-05T19:03:13.243Z,97847.84
2023-05-05T19:06:16.211Z,97826.03
2023-05-05T19:09:18.260Z,97838.81
2023-05-05T19:12:20.279Z,97844.78
2023-05-05T19:15:22.323Z,97847.38
2023-05-05T19:18:25.046Z,97850.00
2023-05-05T19:21:27.888Z,97840.75
2023-05-05T19:24:29.982Z,97847.69
2023-05-05T19:27:34.201Z,97843.91
2023-05-05T19:30:36.404Z,97850.78
2023-05-05T19:33:38.558Z,97847.75
2023-05-05T19:36:40.606Z,97846.88
2023-05-05T19:39:44.524Z,97843.31
2023-05-05T19:42:46.642Z,97832.25
2023-05-05T19:45:48.673Z,97833.72
2023-05-05T19:48:50.785Z,97839.03
2023-05-05T19:51:54.464Z,97836.09
2023-05-05T19:54:56.484Z,97832.44
2023-05-05T19:57:58.575Z,97838.81
2023-05-05T20:01:00.834Z,97832.69
2023-05-05T20:04:03.923Z,97828.06
2023-05-05T20:07:06.008Z,97823.97
2023-05-05T20:10:09.612Z,97825.50
2023-05-05T20:13:11.924Z,97813.50
2023-05-05T20:16:15.044Z,97815.63
2023-05-05T20:19:17.233Z,97810.75
2023-05-05T20:22:19.300Z,97813.34
2023-05-05T20:25:21.704Z,97806.16
2023-05-05T20:28:24.106Z,97800.03
2023-05-05T20:31:26.341Z,97796.00
2023-05-05T20:34:28.478Z,97796.25
2023-05-05T20:37:30.717Z,97804.88
2023-05-05T20:40:33.861Z,97792.28
2023-05-05T20:43:36.927Z,97797.03
2023-05-05T20:46:39.024Z,97789.69
2023-05-05T20:49:41.314Z,97790.50
2023-05-05T20:52:43.387Z,97788.56
2023-05-05T20:55:45.515Z,97787.97
2023-05-05T20:58:47.575Z,97792.03
2023-05-05T21:01:49.686Z,97789.53
2023-05-05T21:04:51.754Z,97787.59
2023-05-05T21:07:54.797Z,97785.94
2023-05-05T21:10:56.837Z,97787.25
2023-05-05T21:13:58.989Z,97788.69
2023-05-05T21:17:01.321Z,97782.22
2023-05-05T21:20:04.177Z,97760.78
2023-05-05T21:23:06.206Z,97779.63
2023-05-05T21:26:08.295Z,97777.09
2023-05-05T21:29:10.922Z,97783.94
2023-05-05T21:32:13.204Z,97779.19
2023-05-05T21:35:15.336Z,97770.53
2023-05-05T21:38:17.371Z,97767.78
2023-05-05T21:41:19.509Z,97766.28
2023-05-05T21:44:21.576Z,97768.97
2023-05-05T21:47:23.653Z,97766.53
2023-05-05T21:50:27.553Z,97762.47
2023-05-05T21:53:31.050Z,97775.47
2023-05-05T21:56:34.293Z,97765.03
2023-05-05T21:59:36.321Z,97734.69
2023-05-05T22:02:38.381Z,97767.59
2023-05-05T22:05:40.469Z,97765.16
2023-05-05T22:08:42.579Z,97770.50
2023-05-05T22:11:44.581Z,97766.44
2023-05-05T22:14:46.628Z,97750.38
2023-05-05T22:17:48.626Z,97757.78
2023-05-05T22:20:51.490Z,97754.78
2023-05-05T22:23:53.467Z,97754.44
2023-05-05T22:26:57.468Z,97747.50
2023-05-05T22:29:59.708Z,97744.28
2023-05-05T22:33:01.772Z,97741.63
2023-05-05T22:36:04.044Z,97740.47
2023-05-05T22:39:06.641Z,97737.47
2023-05-05T22:42:08.760Z,97733.66
2023-05-05T22:45:11.568Z,97732.53
2023-05-05T22:48:13.917Z,97745.03
2023-05-05T22:51:16.621Z,97749.50
2023-05-05T22:54:18.627Z,97749.75
2023-05-05T22:57:21.142Z,97716.38
2023-05-05T23:00:23.260Z,97737.25
2023-05-05T23:03:25.311Z,97731.72
2023-05-05T23:06:28.140Z,97722.44
2023-05-05T23:09:30.240Z,97724.31
2023-05-05T23:12:32.318Z,97726.41
2023-05-05T23:15:35.389Z,97718.88
2023-05-05T23:18:38.087Z,97727.56
2023-05-05T23:21:51.994Z,97713.47
2023-05-05T23:24:55.233Z,97703.97
2023-05-05T23:27:57.221Z,97704.47
2023-05-05T23:30:59.380Z,97697.28
2023-05-05T23:34:01.435Z,97679.97
2023-05-05T23:37:05.900Z,97689.31
2023-05-05T23:40:08.930Z,97690.13
2023-05-05T23:43:12.223Z,97691.16
2023-05-05T23:46:14.358Z,97685.84
2023-05-05T23:49:16.427Z,97676.38
2023-05-05T23:52:18.534Z,97685.47
2023-05-05T23:55:20.736Z,97683.63
2023-05-05T23:58:22.697Z,97686.50
